• Join FlightAware (Why Join?)
  • Login
  • US Flag 
04:44AM EDT


 

Airport Tracker/Info


-or-


 

Live Flight TrackerFlight Track Log ✈ ASQ4283 ✈ 31-Aug-2013 ✈ KIAH - KLCH

Flight Track Log - Related Links

Times and Time Zones

All times are in EDT time to prevent confusion due to time zone crossing. See the ASQ4283 flight status page for this flight to view local times or setup timezone preferences in your user account.

Time Position Orientation Groundspeed Altitude Reporting Facility
EDT Latitude Longitude Course Direction KTS MPH feet Rate Location/Type
10:09PM 30.0422 -95.1055 77° East  Level FlightAware Approximate
10:10PM 30.0616 -95.0291 70° East  Level FlightAware Approximate
10:11PM 30.0849 -94.9539 70° East  Level FlightAware Approximate
10:12PM 30.1081 -94.8787 70° East  Level FlightAware Approximate
10:13PM 30.1312 -94.8034 70° East  Level FlightAware Approximate
10:14PM 30.1543 -94.7281 70° East  Level FlightAware Approximate
10:15PM 30.1774 -94.6528 70° East  Level FlightAware Approximate
10:16PM 30.1799 -94.5742 94° East  Level FlightAware Approximate
10:17PM 30.1752 -94.4945 94° East  Level FlightAware Approximate
10:18PM 30.1705 -94.4148 94° East  Level FlightAware Approximate
10:19PM 30.1662 -94.3351 92° East  Level FlightAware Approximate
10:20PM 30.1637 -94.2552 92° East  Level FlightAware Approximate
10:21PM 30.1611 -94.1754 92° East  Level FlightAware Approximate
10:22PM 30.1584 -94.0956 92° East  Level FlightAware Approximate
10:23PM 30.1557 -94.0157 92° East  Level FlightAware Approximate
10:24PM 30.1530 -93.9359 92° East  Level FlightAware Approximate
10:25PM 30.1502 -93.8561 92° East  Level FlightAware Approximate
10:26PM 30.1419 -93.7768 97° East  Level FlightAware Approximate
10:27PM 30.1333 -93.6976 90° East  Level FlightAware Approximate
10:28PM 30.1334 -93.6177 90° East  Level FlightAware Approximate
10:29PM 30.1334 -93.5378 90° East  Level FlightAware Approximate
10:30PM 30.1333 -93.4580 90° East  Level FlightAware Approximate
10:31PM 30.1291 -93.3787 103° East  Level FlightAware Approximate
10:32PM 30.1167 -93.3005 90° East  Level FlightAware Approximate
10:33PM 30.1167 -93.2206 90° East  Level FlightAware Approximate